sensor_id;sensor_type;location;lat;lon;timestamp;P1;durP1;ratioP1;P2;durP2;ratioP2
63782;SDS011;49925;52.522;5.732;2022-08-04T00:28:47;22.48;;;5.38;;
63782;SDS011;49925;52.522;5.732;2022-08-04T00:31:17;21.77;;;5.03;;
63782;SDS011;49925;52.522;5.732;2022-08-04T00:34:06;20.27;;;5.40;;
63782;SDS011;49925;52.522;5.732;2022-08-04T00:36:39;14.43;;;4.95;;
63782;SDS011;49925;52.522;5.732;2022-08-04T00:39:12;26.27;;;4.95;;
63782;SDS011;49925;52.522;5.732;2022-08-04T00:41:47;25.33;;;4.85;;
63782;SDS011;49925;52.522;5.732;2022-08-04T00:47:41;25.40;;;5.13;;
63782;SDS011;49925;52.522;5.732;2022-08-04T00:53:22;17.23;;;4.65;;
63782;SDS011;49925;52.522;5.732;2022-08-04T01:07:58;15.70;;;4.30;;
63782;SDS011;49925;52.522;5.732;2022-08-04T01:13:44;16.83;;;4.50;;
63782;SDS011;49925;52.522;5.732;2022-08-04T01:16:57;17.95;;;5.03;;
63782;SDS011;49925;52.522;5.732;2022-08-04T01:22:20;20.10;;;4.35;;
63782;SDS011;49925;52.522;5.732;2022-08-04T01:32:54;15.10;;;4.70;;
63782;SDS011;49925;52.522;5.732;2022-08-04T01:38:18;21.80;;;5.03;;
63782;SDS011;49925;52.522;5.732;2022-08-04T01:40:59;26.15;;;5.90;;
63782;SDS011;49925;52.522;5.732;2022-08-04T01:43:31;19.85;;;4.35;;
63782;SDS011;49925;52.522;5.732;2022-08-04T01:46:01;21.85;;;4.72;;
63782;SDS011;49925;52.522;5.732;2022-08-04T01:51:03;22.25;;;4.13;;
63782;SDS011;49925;52.522;5.732;2022-08-04T01:53:33;24.38;;;4.90;;
63782;SDS011;49925;52.522;5.732;2022-08-04T01:56:06;16.33;;;4.38;;
63782;SDS011;49925;52.522;5.732;2022-08-04T02:01:06;12.77;;;4.80;;
63782;SDS011;49925;52.522;5.732;2022-08-04T02:03:38;22.95;;;4.68;;
63782;SDS011;49925;52.522;5.732;2022-08-04T02:06:30;22.13;;;4.40;;
63782;SDS011;49925;52.522;5.732;2022-08-04T02:09:30;26.15;;;4.45;;
63782;SDS011;49925;52.522;5.732;2022-08-04T02:15:47;21.15;;;4.30;;
63782;SDS011;49925;52.522;5.732;2022-08-04T02:18:24;19.08;;;4.82;;
63782;SDS011;49925;52.522;5.732;2022-08-04T02:21:15;20.00;;;4.88;;
63782;SDS011;49925;52.522;5.732;2022-08-04T02:23:46;14.48;;;4.32;;
63782;SDS011;49925;52.522;5.732;2022-08-04T02:26:19;14.63;;;4.20;;
63782;SDS011;49925;52.522;5.732;2022-08-04T02:31:47;25.17;;;5.55;;
63782;SDS011;49925;52.522;5.732;2022-08-04T02:34:26;22.17;;;5.07;;
63782;SDS011;49925;52.522;5.732;2022-08-04T02:36:58;22.30;;;5.57;;
63782;SDS011;49925;52.522;5.732;2022-08-04T02:39:27;22.85;;;4.70;;
63782;SDS011;49925;52.522;5.732;2022-08-04T02:42:13;21.73;;;4.68;;
63782;SDS011;49925;52.522;5.732;2022-08-04T02:44:41;19.45;;;4.63;;
63782;SDS011;49925;52.522;5.732;2022-08-04T02:47:09;18.45;;;4.32;;
63782;SDS011;49925;52.522;5.732;2022-08-04T02:49:37;18.42;;;5.10;;
63782;SDS011;49925;52.522;5.732;2022-08-04T02:52:06;18.05;;;4.85;;
63782;SDS011;49925;52.522;5.732;2022-08-04T02:54:40;18.40;;;4.75;;
63782;SDS011;49925;52.522;5.732;2022-08-04T02:57:11;22.95;;;5.43;;
63782;SDS011;49925;52.522;5.732;2022-08-04T02:59:53;17.58;;;4.80;;
63782;SDS011;49925;52.522;5.732;2022-08-04T05:35:31;34.63;;;8.20;;
63782;SDS011;49925;52.522;5.732;2022-08-04T06:16:06;29.98;;;8.98;;
63782;SDS011;49925;52.522;5.732;2022-08-04T06:18:55;18.70;;;7.88;;
63782;SDS011;49925;52.522;5.732;2022-08-04T06:21:48;19.35;;;7.97;;
63782;SDS011;49925;52.522;5.732;2022-08-04T06:24:25;20.58;;;7.95;;
63782;SDS011;49925;52.522;5.732;2022-08-04T06:26:53;25.50;;;8.35;;
63782;SDS011;49925;52.522;5.732;2022-08-04T06:29:21;30.92;;;8.13;;
63782;SDS011;49925;52.522;5.732;2022-08-04T06:31:53;22.08;;;8.15;;
63782;SDS011;49925;52.522;5.732;2022-08-04T06:34:46;24.52;;;7.95;;
63782;SDS011;49925;52.522;5.732;2022-08-04T06:37:14;26.95;;;7.65;;
63782;SDS011;49925;52.522;5.732;2022-08-04T06:40:02;32.88;;;8.35;;
63782;SDS011;49925;52.522;5.732;2022-08-04T06:42:50;24.70;;;7.53;;
63782;SDS011;49925;52.522;5.732;2022-08-04T06:45:18;22.70;;;7.80;;
63782;SDS011;49925;52.522;5.732;2022-08-04T06:47:46;33.95;;;8.45;;
63782;SDS011;49925;52.522;5.732;2022-08-04T06:50:15;26.45;;;7.22;;
63782;SDS011;49925;52.522;5.732;2022-08-04T06:53:02;37.20;;;8.25;;
63782;SDS011;49925;52.522;5.732;2022-08-04T06:55:30;20.70;;;7.20;;
63782;SDS011;49925;52.522;5.732;2022-08-04T06:57:57;29.17;;;7.50;;
63782;SDS011;49925;52.522;5.732;2022-08-04T07:00:28;29.60;;;7.38;;
63782;SDS011;49925;52.522;5.732;2022-08-04T07:02:57;24.98;;;8.73;;
63782;SDS011;49925;52.522;5.732;2022-08-04T21:14:54;16.98;;;4.53;;
63782;SDS011;49925;52.522;5.732;2022-08-04T23:25:08;19.73;;;4.20;;
63782;SDS011;49925;52.522;5.732;2022-08-04T23:27:42;14.25;;;3.97;;
63782;SDS011;49925;52.522;5.732;2022-08-04T23:30:17;15.77;;;4.30;;
63782;SDS011;49925;52.522;5.732;2022-08-04T23:32:55;12.73;;;4.15;;
63782;SDS011;49925;52.522;5.732;2022-08-04T23:35:22;19.13;;;3.90;;
